Time;durP1;ratioP1;P1;durP2;ratioP2;P2;SDS_P1;SDS_P2;PMS_P1;PMS_P2;Temp;Humidity;BMP_temperature;BMP_pressure;BME280_temperature;BME280_humidity;BME280_pressure;Samples;Min_cycle;Max_cycle;Signal;HPM_P1;HPM_P2
2022/07/30 00:01:21;;;;;;;5.70;5.20;;;;;;;;;;5049495;28;20713;-63
2022/07/30 00:03:48;;;;;;;7.78;6.00;;;;;;;;;;5048745;28;20211;-63
2022/07/30 00:06:15;;;;;;;12.93;6.35;;;;;;;;;;5049142;28;20230;-63
2022/07/30 00:08:42;;;;;;;7.07;5.75;;;;;;;;;;5049304;28;20216;-63
2022/07/30 00:11:10;;;;;;;7.22;6.55;;;;;;;;;;5049236;28;20620;-63
2022/07/30 00:13:39;;;;;;;8.48;6.78;;;;;;;;;;5048597;28;20207;-62
2022/07/30 00:16:06;;;;;;;6.18;5.68;;;;;;;;;;5049015;28;20204;-62
2022/07/30 00:18:33;;;;;;;7.55;6.38;;;;;;;;;;5048624;28;20211;-63
2022/07/30 00:21:00;;;;;;;6.43;5.72;;;;;;;;;;5048941;28;20594;-62
2022/07/30 00:23:27;;;;;;;7.05;6.00;;;;;;;;;;5048271;28;20203;-62
2022/07/30 00:25:54;;;;;;;9.55;6.82;;;;;;;;;;5048667;28;20231;-63
2022/07/30 00:28:21;;;;;;;7.05;6.07;;;;;;;;;;5048147;28;20262;-63
2022/07/30 00:30:50;;;;;;;8.85;6.35;;;;;;;;;;5048861;28;20203;-62
2022/07/30 00:33:17;;;;;;;8.45;7.30;;;;;;;;;;5048413;28;20211;-63
2022/07/30 00:35:44;;;;;;;7.88;7.18;;;;;;;;;;5048706;28;20207;-62
2022/07/30 00:38:11;;;;;;;6.45;5.90;;;;;;;;;;5044447;28;20196;-62
2022/07/30 00:40:47;;;;;;;8.40;6.85;;;;;;;;;;5047121;28;20269;-62
2022/07/30 00:43:15;;;;;;;11.52;6.90;;;;;;;;;;5047995;28;20753;-64
2022/07/30 00:45:43;;;;;;;9.05;6.82;;;;;;;;;;5048568;28;20223;-63
2022/07/30 00:48:12;;;;;;;7.97;7.38;;;;;;;;;;5048189;28;20685;-62
2022/07/30 00:50:39;;;;;;;10.57;7.43;;;;;;;;;;5048520;28;20206;-62
2022/07/30 00:53:06;;;;;;;8.23;7.53;;;;;;;;;;5048123;28;20212;-63
2022/07/30 00:55:33;;;;;;;7.28;6.63;;;;;;;;;;5048586;28;20223;-62
2022/07/30 00:58:00;;;;;;;7.60;6.90;;;;;;;;;;5047968;28;20215;-62
2022/07/30 01:00:28;;;;;;;7.78;7.18;;;;;;;;;;5048570;28;20208;-63
2022/07/30 01:02:55;;;;;;;8.02;7.32;;;;;;;;;;5051395;28;20298;-63
2022/07/30 01:05:23;;;;;;;8.93;7.88;;;;;;;;;;5050682;28;20432;-63
2022/07/30 01:07:51;;;;;;;7.50;6.82;;;;;;;;;;5051917;28;20208;-63
2022/07/30 01:10:18;;;;;;;8.23;6.68;;;;;;;;;;5051379;28;20204;-62
2022/07/30 01:12:46;;;;;;;7.90;7.22;;;;;;;;;;5052275;28;20207;-63
2022/07/30 01:15:13;;;;;;;8.27;7.57;;;;;;;;;;5052171;28;20325;-63
2022/07/30 01:17:41;;;;;;;7.60;6.80;;;;;;;;;;5052119;28;20199;-62
2022/07/30 01:20:10;;;;;;;7.95;7.30;;;;;;;;;;5051934;28;20239;-62
2022/07/30 01:22:44;;;;;;;7.60;6.55;;;;;;;;;;5052265;28;20219;-62
2022/07/30 01:25:14;;;;;;;6.35;5.85;;;;;;;;;;5052592;28;20292;-62
2022/07/30 01:27:46;;;;;;;6.20;5.70;;;;;;;;;;5051141;28;20219;-63
2022/07/30 01:30:14;;;;;;;8.40;7.20;;;;;;;;;;5052314;28;20631;-63
2022/07/30 01:32:42;;;;;;;6.93;6.32;;;;;;;;;;5051963;28;20215;-63
2022/07/30 01:35:10;;;;;;;8.48;6.50;;;;;;;;;;5051351;28;20242;-64
2022/07/30 01:37:38;;;;;;;6.90;6.32;;;;;;;;;;5048159;28;20214;-63
2022/07/30 01:40:06;;;;;;;6.20;5.80;;;;;;;;;;5051722;28;20234;-64
2022/07/30 01:42:34;;;;;;;7.22;6.47;;;;;;;;;;5051575;28;20203;-64
2022/07/30 01:45:03;;;;;;;7.68;6.57;;;;;;;;;;5051432;28;20203;-64
2022/07/30 01:47:30;;;;;;;7.13;6.57;;;;;;;;;;5051378;28;20226;-64
2022/07/30 01:49:58;;;;;;;6.45;6.00;;;;;;;;;;5051229;28;20207;-63
2022/07/30 01:52:29;;;;;;;7.45;6.15;;;;;;;;;;5051605;28;20200;-64
2022/07/30 01:54:57;;;;;;;6.43;5.85;;;;;;;;;;5049057;28;20792;-64
2022/07/30 01:57:26;;;;;;;6.50;5.90;;;;;;;;;;5041002;28;20223;-64
2022/07/30 01:59:58;;;;;;;7.88;5.88;;;;;;;;;;5051198;28;20215;-64
2022/07/30 02:02:26;;;;;;;6.80;6.22;;;;;;;;;;5051397;28;20666;-64
2022/07/30 02:04:54;;;;;;;7.35;6.63;;;;;;;;;;5051855;28;20674;-64
2022/07/30 02:07:24;;;;;;;8.02;6.15;;;;;;;;;;5050991;28;20224;-63
2022/07/30 02:09:54;;;;;;;9.40;5.78;;;;;;;;;;5051064;28;20211;-63
2022/07/30 02:12:31;;;;;;;7.03;6.47;;;;;;;;;;5050677;28;20208;-64
2022/07/30 02:15:04;;;;;;;8.80;6.97;;;;;;;;;;5051742;28;20889;-64
2022/07/30 02:17:43;;;;;;;7.13;6.57;;;;;;;;;;5050575;28;20557;-64
2022/07/30 02:20:11;;;;;;;8.98;6.13;;;;;;;;;;5048030;28;20242;-64
2022/07/30 02:22:43;;;;;;;8.52;6.80;;;;;;;;;;5051051;28;20203;-64
2022/07/30 02:25:10;;;;;;;6.63;6.00;;;;;;;;;;5049153;28;20269;-63
2022/07/30 02:27:39;;;;;;;8.20;6.30;;;;;;;;;;5050710;28;20235;-64
2022/07/30 02:30:07;;;;;;;6.22;5.75;;;;;;;;;;5051052;28;20212;-64
2022/07/30 02:32:36;;;;;;;6.93;6.30;;;;;;;;;;5050645;28;20207;-64
2022/07/30 02:35:09;;;;;;;7.22;6.53;;;;;;;;;;5051107;28;20748;-65
2022/07/30 02:37:37;;;;;;;6.78;6.18;;;;;;;;;;5050401;28;20295;-64
2022/07/30 02:40:05;;;;;;;7.60;6.03;;;;;;;;;;5050708;28;20206;-64
2022/07/30 02:42:50;;;;;;;6.20;5.70;;;;;;;;;;5050150;28;20775;-64
2022/07/30 02:45:17;;;;;;;6.25;5.68;;;;;;;;;;5043718;28;20917;-64
2022/07/30 02:47:45;;;;;;;6.05;5.65;;;;;;;;;;5050266;28;20314;-64
2022/07/30 02:50:14;;;;;;;7.07;6.40;;;;;;;;;;5050484;28;20212;-64
2022/07/30 02:52:42;;;;;;;7.13;6.22;;;;;;;;;;5049937;28;20215;-63
2022/07/30 02:55:10;;;;;;;5.63;5.22;;;;;;;;;;5050513;28;20231;-64
2022/07/30 02:57:38;;;;;;;6.65;6.10;;;;;;;;;;5049890;28;20203;-64
2022/07/30 03:00:05;;;;;;;6.63;6.10;;;;;;;;;;5050416;28;20199;-63
2022/07/30 03:02:33;;;;;;;6.75;6.15;;;;;;;;;;5049226;28;20212;-63
2022/07/30 03:05:01;;;;;;;7.63;6.07;;;;;;;;;;5049745;28;20265;-63
2022/07/30 03:07:30;;;;;;;6.45;5.93;;;;;;;;;;5048697;28;20223;-63
2022/07/30 03:09:57;;;;;;;6.55;5.95;;;;;;;;;;5049426;28;20223;-64
2022/07/30 03:12:25;;;;;;;6.20;5.80;;;;;;;;;;5048916;28;20210;-63
2022/07/30 03:14:52;;;;;;;6.28;5.68;;;;;;;;;;5049149;28;20273;-64
2022/07/30 03:17:20;;;;;;;6.60;6.03;;;;;;;;;;5049068;28;20200;-64
2022/07/30 03:19:48;;;;;;;6.40;5.90;;;;;;;;;;5049034;28;20250;-64
2022/07/30 03:22:17;;;;;;;6.50;5.80;;;;;;;;;;5049086;28;20199;-63
2022/07/30 03:24:47;;;;;;;7.25;5.68;;;;;;;;;;5042698;28;20211;-63
2022/07/30 03:27:15;;;;;;;6.60;6.20;;;;;;;;;;5061290;28;20212;-63
2022/07/30 03:29:42;;;;;;;6.55;5.57;;;;;;;;;;5049050;28;20971;-64
2022/07/30 03:32:10;;;;;;;6.45;5.90;;;;;;;;;;5036150;28;20670;-63
2022/07/30 03:34:37;;;;;;;6.05;5.53;;;;;;;;;;5048771;28;20216;-64
2022/07/30 03:37:05;;;;;;;7.88;6.25;;;;;;;;;;5048948;28;20200;-64
2022/07/30 03:39:33;;;;;;;6.35;5.75;;;;;;;;;;5049279;28;20222;-63
2022/07/30 03:42:02;;;;;;;9.30;6.38;;;;;;;;;;5049202;28;20199;-63
2022/07/30 03:44:30;;;;;;;6.22;5.72;;;;;;;;;;5048921;28;20242;-64
2022/07/30 03:46:58;;;;;;;5.57;5.28;;;;;;;;;;5048873;28;20234;-63
2022/07/30 03:49:25;;;;;;;6.40;5.80;;;;;;;;;;5049502;28;20219;-63
2022/07/30 03:51:53;;;;;;;6.82;6.10;;;;;;;;;;5049231;28;20204;-63
2022/07/30 03:54:21;;;;;;;8.60;5.30;;;;;;;;;;5049400;28;20585;-64
2022/07/30 03:56:48;;;;;;;7.70;5.55;;;;;;;;;;5048231;28;20917;-64
2022/07/30 03:59:17;;;;;;;6.13;5.80;;;;;;;;;;5029327;28;20239;-63
2022/07/30 04:01:44;;;;;;;5.38;5.00;;;;;;;;;;5046085;28;20626;-63
2022/07/30 04:04:11;;;;;;;5.95;5.65;;;;;;;;;;5048472;28;20230;-62
2022/07/30 04:06:39;;;;;;;5.90;5.38;;;;;;;;;;5044740;28;20621;-63
2022/07/30 04:09:07;;;;;;;6.22;5.70;;;;;;;;;;5048762;28;20230;-63
2022/07/30 04:11:34;;;;;;;6.10;5.60;;;;;;;;;;5048786;28;20640;-63
2022/07/30 04:14:01;;;;;;;6.00;5.50;;;;;;;;;;5048813;28;21105;-63
2022/07/30 04:16:35;;;;;;;6.15;5.75;;;;;;;;;;5047792;28;20694;-63
2022/07/30 04:19:04;;;;;;;5.93;5.50;;;;;;;;;;5048919;28;20238;-63
2022/07/30 04:21:32;;;;;;;6.13;5.68;;;;;;;;;;5048757;28;20230;-63
2022/07/30 04:24:00;;;;;;;10.05;6.28;;;;;;;;;;5048552;28;20211;-63
2022/07/30 04:26:27;;;;;;;6.53;5.97;;;;;;;;;;5048458;28;20215;-63
2022/07/30 04:28:54;;;;;;;6.80;6.13;;;;;;;;;;5048378;28;20219;-63
2022/07/30 04:31:21;;;;;;;7.13;5.70;;;;;;;;;;5048425;28;20270;-63
2022/07/30 04:33:50;;;;;;;6.25;5.68;;;;;;;;;;5048413;28;20211;-63
2022/07/30 04:36:17;;;;;;;12.60;5.88;;;;;;;;;;5047522;28;20207;-64
2022/07/30 04:38:44;;;;;;;6.32;5.68;;;;;;;;;;5048301;28;20214;-64
2022/07/30 04:41:11;;;;;;;8.15;6.72;;;;;;;;;;5048739;28;20208;-64
2022/07/30 04:43:38;;;;;;;9.27;6.03;;;;;;;;;;5048363;28;20218;-64
2022/07/30 04:46:05;;;;;;;8.07;5.85;;;;;;;;;;5048406;28;20219;-63
2022/07/30 04:48:32;;;;;;;6.57;6.05;;;;;;;;;;5048308;28;20242;-63
2022/07/30 04:51:03;;;;;;;6.97;6.20;;;;;;;;;;5048498;28;20203;-63
2022/07/30 04:53:37;;;;;;;6.85;6.25;;;;;;;;;;5048765;28;20199;-64
2022/07/30 04:56:04;;;;;;;7.35;6.65;;;;;;;;;;5047487;28;20708;-63
2022/07/30 04:58:32;;;;;;;7.00;6.47;;;;;;;;;;5047659;28;20268;-63
2022/07/30 05:01:00;;;;;;;6.53;6.13;;;;;;;;;;5047126;28;20208;-63
2022/07/30 05:03:27;;;;;;;7.63;5.78;;;;;;;;;;5047391;28;20216;-63
2022/07/30 05:05:55;;;;;;;6.63;6.18;;;;;;;;;;5046864;28;20214;-63
2022/07/30 05:08:23;;;;;;;6.80;6.18;;;;;;;;;;5047573;28;20227;-63
2022/07/30 05:10:50;;;;;;;6.43;5.85;;;;;;;;;;5046553;28;20285;-63
2022/07/30 05:13:18;;;;;;;6.45;5.93;;;;;;;;;;5046883;28;20204;-63
2022/07/30 05:15:45;;;;;;;7.60;6.65;;;;;;;;;;5047608;28;20226;-63
2022/07/30 05:18:12;;;;;;;8.25;6.07;;;;;;;;;;5047439;28;20398;-63
2022/07/30 05:20:39;;;;;;;6.90;6.30;;;;;;;;;;5047028;28;20235;-63
2022/07/30 05:23:07;;;;;;;7.13;6.53;;;;;;;;;;5047600;28;20662;-64
2022/07/30 05:25:36;;;;;;;6.88;6.38;;;;;;;;;;5047391;28;20209;-64
2022/07/30 05:28:03;;;;;;;7.82;6.70;;;;;;;;;;5047466;28;20306;-64
2022/07/30 05:30:30;;;;;;;7.28;6.78;;;;;;;;;;5047224;28;20211;-64
2022/07/30 05:32:57;;;;;;;9.57;6.55;;;;;;;;;;5047258;28;20208;-64
2022/07/30 05:35:24;;;;;;;6.78;6.18;;;;;;;;;;5047234;28;20203;-64
2022/07/30 05:37:51;;;;;;;6.70;6.20;;;;;;;;;;5046758;28;20192;-64
2022/07/30 05:40:18;;;;;;;6.03;5.53;;;;;;;;;;5047115;28;20211;-63
2022/07/30 05:42:46;;;;;;;10.38;6.20;;;;;;;;;;5047258;28;20219;-63
2022/07/30 05:45:13;;;;;;;6.13;5.68;;;;;;;;;;5046982;28;20208;-65
2022/07/30 05:47:40;;;;;;;6.20;5.80;;;;;;;;;;5048129;28;20720;-63
2022/07/30 05:50:08;;;;;;;6.07;5.57;;;;;;;;;;5050757;28;20218;-63
2022/07/30 05:52:35;;;;;;;6.05;5.45;;;;;;;;;;5049257;28;20214;-63
2022/07/30 05:55:02;;;;;;;5.95;5.10;;;;;;;;;;5047971;28;20650;-63
2022/07/30 05:57:29;;;;;;;6.38;5.65;;;;;;;;;;5049713;28;20547;-63
2022/07/30 05:59:57;;;;;;;5.60;5.07;;;;;;;;;;5050761;28;20210;-64
2022/07/30 06:02:24;;;;;;;5.60;5.20;;;;;;;;;;5050697;28;20254;-63
2022/07/30 06:04:51;;;;;;;5.38;4.97;;;;;;;;;;5050872;28;20203;-63
2022/07/30 06:07:18;;;;;;;6.72;4.78;;;;;;;;;;5048711;28;20574;-63
2022/07/30 06:09:45;;;;;;;5.22;4.82;;;;;;;;;;5050224;28;20582;-63
2022/07/30 06:12:12;;;;;;;5.10;4.60;;;;;;;;;;5050426;28;20204;-64
2022/07/30 06:14:39;;;;;;;5.22;4.82;;;;;;;;;;5050655;28;20685;-64
2022/07/30 06:17:08;;;;;;;5.75;4.65;;;;;;;;;;5050834;28;20203;-64
2022/07/30 06:19:35;;;;;;;4.90;4.60;;;;;;;;;;5049609;28;20232;-64
2022/07/30 06:22:05;;;;;;;5.55;5.10;;;;;;;;;;5047917;28;20705;-63
2022/07/30 06:24:32;;;;;;;5.70;4.40;;;;;;;;;;5050304;28;20207;-64
2022/07/30 06:26:59;;;;;;;4.57;4.20;;;;;;;;;;5050094;28;20208;-63
2022/07/30 06:29:26;;;;;;;7.45;4.80;;;;;;;;;;5050288;28;20207;-64
2022/07/30 06:31:54;;;;;;;8.93;4.72;;;;;;;;;;5050564;28;20208;-64
2022/07/30 06:34:22;;;;;;;5.00;4.65;;;;;;;;;;5049334;28;20211;-64
2022/07/30 06:36:49;;;;;;;4.80;4.50;;;;;;;;;;5051197;28;20264;-63
2022/07/30 06:39:17;;;;;;;4.53;3.97;;;;;;;;;;5051258;28;20265;-64
2022/07/30 06:41:44;;;;;;;4.53;4.13;;;;;;;;;;5050968;28;20219;-64
2022/07/30 06:44:11;;;;;;;4.22;3.90;;;;;;;;;;5050448;28;20258;-63
2022/07/30 06:46:38;;;;;;;6.60;4.15;;;;;;;;;;5050739;28;20208;-63
2022/07/30 06:49:05;;;;;;;4.70;3.60;;;;;;;;;;5050309;28;20235;-63
2022/07/30 06:51:34;;;;;;;4.88;4.38;;;;;;;;;;5050513;28;20219;-63
2022/07/30 06:54:01;;;;;;;4.60;4.18;;;;;;;;;;5050120;28;20204;-63
2022/07/30 06:56:28;;;;;;;4.75;4.10;;;;;;;;;;5049826;28;20227;-64
2022/07/30 06:58:55;;;;;;;6.45;4.80;;;;;;;;;;5049164;28;20196;-63
2022/07/30 07:01:22;;;;;;;5.13;4.28;;;;;;;;;;5049205;28;20199;-68
2022/07/30 07:03:52;;;;;;;4.28;3.80;;;;;;;;;;5050286;28;20269;-62
2022/07/30 07:06:19;;;;;;;4.57;3.70;;;;;;;;;;5048497;28;20287;-62
2022/07/30 07:08:48;;;;;;;5.10;4.60;;;;;;;;;;5049563;28;20231;-62
2022/07/30 07:11:15;;;;;;;11.63;4.70;;;;;;;;;;5046401;28;20200;-62
2022/07/30 07:13:42;;;;;;;6.63;4.15;;;;;;;;;;5044286;28;20559;-61
2022/07/30 07:16:09;;;;;;;7.88;5.03;;;;;;;;;;5049286;28;20210;-61
2022/07/30 07:18:37;;;;;;;8.02;4.80;;;;;;;;;;5046923;28;20725;-62
2022/07/30 07:21:05;;;;;;;4.65;4.30;;;;;;;;;;5041617;28;20209;-61
2022/07/30 07:23:32;;;;;;;5.45;4.97;;;;;;;;;;5048424;28;20203;-62
2022/07/30 07:26:00;;;;;;;3.92;3.63;;;;;;;;;;5047989;28;20200;-66
2022/07/30 07:28:27;;;;;;;3.95;3.78;;;;;;;;;;5049637;28;20227;-66
2022/07/30 07:30:55;;;;;;;5.10;3.80;;;;;;;;;;5049868;28;20208;-65
2022/07/30 07:33:22;;;;;;;6.03;4.95;;;;;;;;;;5047902;28;20208;-65
2022/07/30 07:35:49;;;;;;;4.75;4.43;;;;;;;;;;5041135;28;20902;-66
2022/07/30 07:38:16;;;;;;;5.40;4.45;;;;;;;;;;5035843;28;20203;-63
2022/07/30 07:40:43;;;;;;;6.60;4.97;;;;;;;;;;5049314;28;20204;-63
2022/07/30 07:43:12;;;;;;;5.90;4.70;;;;;;;;;;5049372;28;20251;-62
2022/07/30 07:45:39;;;;;;;5.13;4.25;;;;;;;;;;5049417;28;20215;-63
2022/07/30 07:48:06;;;;;;;9.50;4.75;;;;;;;;;;5047408;28;20651;-63
2022/07/30 07:50:33;;;;;;;4.55;4.22;;;;;;;;;;5048862;28;20207;-63
2022/07/30 07:53:00;;;;;;;4.72;4.32;;;;;;;;;;5049316;28;20570;-63
2022/07/30 07:55:27;;;;;;;4.72;4.30;;;;;;;;;;5049105;28;20288;-63
2022/07/30 07:57:55;;;;;;;5.35;4.65;;;;;;;;;;5049068;28;20203;-64
2022/07/30 08:00:23;;;;;;;9.65;5.50;;;;;;;;;;5047223;28;20947;-64
2022/07/30 08:02:50;;;;;;;6.50;4.80;;;;;;;;;;5048499;28;20619;-65
2022/07/30 08:05:17;;;;;;;6.85;5.65;;;;;;;;;;5048759;28;20211;-65
2022/07/30 08:07:45;;;;;;;5.65;4.65;;;;;;;;;;5048180;28;20210;-64
2022/07/30 08:10:14;;;;;;;7.68;3.95;;;;;;;;;;5048085;28;20207;-64
2022/07/30 08:12:41;;;;;;;6.80;6.30;;;;;;;;;;5048136;28;20211;-64
2022/07/30 08:15:09;;;;;;;7.15;5.97;;;;;;;;;;5048943;28;20302;-69
2022/07/30 08:17:41;;;;;;;6.25;5.68;;;;;;;;;;5048141;28;20258;-65
2022/07/30 08:20:09;;;;;;;6.30;4.93;;;;;;;;;;5048070;28;20340;-64
2022/07/30 08:22:36;;;;;;;8.95;4.63;;;;;;;;;;5048457;28;20214;-65
2022/07/30 08:25:03;;;;;;;5.43;4.93;;;;;;;;;;5048252;28;20215;-65
2022/07/30 08:27:31;;;;;;;8.30;6.07;;;;;;;;;;5047716;28;20207;-65
2022/07/30 08:29:58;;;;;;;6.45;4.80;;;;;;;;;;5045960;28;20342;-66
2022/07/30 08:32:25;;;;;;;6.65;4.50;;;;;;;;;;5047821;28;20215;-65
2022/07/30 08:34:53;;;;;;;7.25;5.68;;;;;;;;;;5047837;28;20203;-65
2022/07/30 08:37:20;;;;;;;6.00;5.28;;;;;;;;;;5047146;28;20208;-65
2022/07/30 08:39:47;;;;;;;9.45;5.65;;;;;;;;;;5044345;28;20199;-65
2022/07/30 08:42:15;;;;;;;5.50;5.00;;;;;;;;;;5046731;28;20230;-65
2022/07/30 08:44:44;;;;;;;4.75;4.35;;;;;;;;;;5047400;28;20689;-65
2022/07/30 08:47:12;;;;;;;6.10;4.07;;;;;;;;;;5038934;28;20207;-64
2022/07/30 08:49:39;;;;;;;8.07;5.00;;;;;;;;;;5047064;28;20877;-64
2022/07/30 08:52:08;;;;;;;5.47;4.38;;;;;;;;;;5047106;28;20207;-64
2022/07/30 08:54:35;;;;;;;5.28;4.00;;;;;;;;;;5048035;28;20226;-65
2022/07/30 08:57:02;;;;;;;7.35;4.40;;;;;;;;;;5048146;28;20218;-65
2022/07/30 08:59:29;;;;;;;4.32;3.97;;;;;;;;;;5042606;28;20208;-64
2022/07/30 09:01:56;;;;;;;3.65;3.35;;;;;;;;;;5048051;28;20215;-64
2022/07/30 09:04:23;;;;;;;4.03;3.83;;;;;;;;;;5047542;28;20208;-64
2022/07/30 09:06:50;;;;;;;6.82;4.10;;;;;;;;;;5047241;28;20564;-64
2022/07/30 09:09:19;;;;;;;3.72;3.42;;;;;;;;;;5041904;28;20238;-65
2022/07/30 09:11:46;;;;;;;5.63;4.28;;;;;;;;;;5047941;28;20854;-65
2022/07/30 09:14:14;;;;;;;6.28;3.42;;;;;;;;;;5048012;28;20207;-66
2022/07/30 09:16:41;;;;;;;4.05;3.72;;;;;;;;;;5047626;28;20216;-65
2022/07/30 09:19:12;;;;;;;3.97;3.45;;;;;;;;;;5047280;28;20326;-63
2022/07/30 09:21:39;;;;;;;5.00;3.50;;;;;;;;;;5051170;28;20234;-63
2022/07/30 09:24:08;;;;;;;3.65;3.45;;;;;;;;;;5050441;28;20207;-63
2022/07/30 09:26:53;;;;;;;3.00;2.80;;;;;;;;;;5051491;28;20214;-63
2022/07/30 09:29:21;;;;;;;5.13;3.50;;;;;;;;;;5049646;28;20227;-63
2022/07/30 09:31:55;;;;;;;3.38;2.85;;;;;;;;;;5050896;28;20633;-64
2022/07/30 09:34:26;;;;;;;9.00;2.70;;;;;;;;;;5048176;28;20219;-64
2022/07/30 09:36:53;;;;;;;3.63;2.70;;;;;;;;;;5050006;28;20207;-64
2022/07/30 09:39:28;;;;;;;3.53;2.80;;;;;;;;;;5049360;28;20202;-64
2022/07/30 09:41:57;;;;;;;3.50;3.20;;;;;;;;;;5047637;28;20666;-64
2022/07/30 09:44:25;;;;;;;5.65;3.42;;;;;;;;;;5051789;28;20302;-65
2022/07/30 09:46:52;;;;;;;2.45;2.45;;;;;;;;;;5050618;28;20253;-65
2022/07/30 09:49:20;;;;;;;3.50;3.20;;;;;;;;;;5052038;28;20619;-65
2022/07/30 09:51:48;;;;;;;3.25;3.00;;;;;;;;;;5051534;28;20219;-65
2022/07/30 09:54:15;;;;;;;2.25;2.20;;;;;;;;;;5051321;28;20207;-65
2022/07/30 09:56:42;;;;;;;2.90;2.70;;;;;;;;;;5050492;28;20230;-65
2022/07/30 09:59:25;;;;;;;3.35;2.15;;;;;;;;;;5050481;28;20215;-65
2022/07/30 10:01:53;;;;;;;4.20;2.53;;;;;;;;;;5049235;28;20218;-64
2022/07/30 10:04:24;;;;;;;2.60;2.40;;;;;;;;;;5052265;28;20207;-64
2022/07/30 10:06:51;;;;;;;2.42;2.33;;;;;;;;;;5051275;28;20277;-65
2022/07/30 10:09:25;;;;;;;2.80;2.53;;;;;;;;;;5051008;28;20227;-64
2022/07/30 10:11:52;;;;;;;2.33;2.20;;;;;;;;;;5050150;28;20215;-65
2022/07/30 11:49:40;;;;;;;2.35;1.50;;;;;;;;;;5238471;23;20486;-66
2022/07/30 11:52:08;;;;;;;1.88;1.80;;;;;;;;;;4980989;28;20233;-64
2022/07/30 11:54:50;;;;;;;1.40;1.40;;;;;;;;;;4988837;28;20221;-65
2022/07/30 11:57:17;;;;;;;2.42;1.80;;;;;;;;;;4970307;28;20221;-64
2022/07/30 11:59:53;;;;;;;1.63;1.60;;;;;;;;;;4984352;28;20252;-64
2022/07/30 12:02:26;;;;;;;1.55;1.55;;;;;;;;;;4989007;28;20212;-64
2022/07/30 12:04:55;;;;;;;2.40;1.55;;;;;;;;;;4988833;28;20202;-64
2022/07/30 12:07:22;;;;;;;1.75;1.65;;;;;;;;;;4989284;28;20206;-65
2022/07/30 12:09:50;;;;;;;6.30;1.20;;;;;;;;;;4988931;28;20221;-66
2022/07/30 12:12:24;;;;;;;3.58;1.77;;;;;;;;;;4989362;28;20236;-64
2022/07/30 12:14:51;;;;;;;1.38;1.38;;;;;;;;;;4986804;28;20268;-64
2022/07/30 12:17:18;;;;;;;1.65;1.23;;;;;;;;;;4989324;28;20522;-64
2022/07/30 12:19:45;;;;;;;2.13;1.63;;;;;;;;;;4988825;28;20209;-64
2022/07/30 12:22:13;;;;;;;1.65;1.55;;;;;;;;;;4997931;28;20216;-64
2022/07/30 12:24:41;;;;;;;1.30;1.25;;;;;;;;;;5000891;28;20822;-64
2022/07/30 12:27:08;;;;;;;5.93;2.70;;;;;;;;;;4991349;28;20210;-65
2022/07/30 12:29:35;;;;;;;49.03;11.25;;;;;;;;;;4988597;28;20240;-64
2022/07/30 12:32:03;;;;;;;1.70;1.70;;;;;;;;;;5002760;28;20632;-65
2022/07/30 12:34:30;;;;;;;1.70;1.60;;;;;;;;;;5002473;28;20205;-65
2022/07/30 12:37:07;;;;;;;1.60;1.50;;;;;;;;;;5008631;28;20213;-65
2022/07/30 12:39:35;;;;;;;2.13;1.90;;;;;;;;;;4993080;28;20208;-66
2022/07/30 12:42:03;;;;;;;1.55;1.55;;;;;;;;;;4998518;28;20209;-65
2022/07/30 12:44:37;;;;;;;1.80;1.70;;;;;;;;;;4988850;28;20684;-65
2022/07/30 12:47:05;;;;;;;2.15;1.40;;;;;;;;;;4988537;28;20210;-65
2022/07/30 12:49:33;;;;;;;1.50;1.50;;;;;;;;;;4983086;28;20245;-65
2022/07/30 12:52:00;;;;;;;2.00;1.90;;;;;;;;;;4977519;28;20645;-65
2022/07/30 12:54:28;;;;;;;1.98;1.40;;;;;;;;;;4969276;28;20206;-71
2022/07/30 12:57:01;;;;;;;1.67;1.58;;;;;;;;;;4970036;28;20544;-65
2022/07/30 12:59:29;;;;;;;1.50;1.40;;;;;;;;;;4968873;28;20210;-65
2022/07/30 13:01:58;;;;;;;1.80;1.70;;;;;;;;;;4968927;28;20207;-65
2022/07/30 13:04:26;;;;;;;1.60;1.50;;;;;;;;;;4968636;28;20214;-66
2022/07/30 13:07:06;;;;;;;1.50;1.40;;;;;;;;;;4978501;28;20326;-65
2022/07/30 13:09:33;;;;;;;1.15;1.15;;;;;;;;;;4976382;28;20244;-66
2022/07/30 13:12:01;;;;;;;3.88;1.60;;;;;;;;;;4984016;28;20214;-66
2022/07/30 13:14:28;;;;;;;1.60;1.25;;;;;;;;;;5002323;28;20209;-65
2022/07/30 13:16:57;;;;;;;1.58;1.42;;;;;;;;;;4987715;28;20217;-65
2022/07/30 13:19:24;;;;;;;1.30;1.20;;;;;;;;;;4987997;28;20205;-65
2022/07/30 13:21:51;;;;;;;1.85;1.65;;;;;;;;;;5003783;28;20205;-65
2022/07/30 13:24:18;;;;;;;1.50;1.50;;;;;;;;;;5007732;28;20220;-66
2022/07/30 13:26:45;;;;;;;1.58;1.58;;;;;;;;;;5004179;28;20216;-66
2022/07/30 13:29:14;;;;;;;1.33;1.30;;;;;;;;;;4987995;28;20233;-68
2022/07/30 13:31:41;;;;;;;1.85;1.40;;;;;;;;;;4978304;28;20230;-65
2022/07/30 13:34:08;;;;;;;1.35;1.35;;;;;;;;;;4968682;28;20237;-66
2022/07/30 13:36:35;;;;;;;1.58;1.48;;;;;;;;;;4986701;28;20217;-66
2022/07/30 13:39:02;;;;;;;2.55;1.65;;;;;;;;;;4981123;28;20210;-66
2022/07/30 13:41:29;;;;;;;1.48;1.30;;;;;;;;;;4982781;28;20213;-66
2022/07/30 13:43:56;;;;;;;1.25;1.17;;;;;;;;;;4988098;28;20289;-66
2022/07/30 13:46:24;;;;;;;1.52;1.42;;;;;;;;;;4985023;28;20213;-66
2022/07/30 13:48:52;;;;;;;1.85;1.75;;;;;;;;;;4974307;28;20242;-66
2022/07/30 13:51:19;;;;;;;1.58;1.48;;;;;;;;;;4980008;28;20206;-66
2022/07/30 13:53:46;;;;;;;1.60;1.60;;;;;;;;;;4987583;28;20202;-66
2022/07/30 13:56:13;;;;;;;1.60;1.60;;;;;;;;;;4974807;28;20209;-67
2022/07/30 13:58:40;;;;;;;2.05;1.52;;;;;;;;;;4975954;28;20217;-65
2022/07/30 14:01:07;;;;;;;1.40;1.30;;;;;;;;;;4969620;28;20213;-67
2022/07/30 14:03:35;;;;;;;1.58;1.58;;;;;;;;;;4979259;28;20217;-67
2022/07/30 14:06:03;;;;;;;2.15;2.00;;;;;;;;;;4986784;28;20221;-67
2022/07/30 14:08:30;;;;;;;1.90;1.52;;;;;;;;;;4982588;28;20222;-66
2022/07/30 14:10:58;;;;;;;1.10;1.10;;;;;;;;;;4979934;28;20328;-66
2022/07/30 14:13:25;;;;;;;2.03;1.27;;;;;;;;;;4986472;28;20781;-66
2022/07/30 14:15:53;;;;;;;1.50;1.50;;;;;;;;;;4972831;28;20210;-66
2022/07/30 14:18:20;;;;;;;1.80;1.70;;;;;;;;;;4972753;28;20211;-66
2022/07/30 14:20:51;;;;;;;1.65;1.40;;;;;;;;;;4972071;28;20630;-66
2022/07/30 14:23:18;;;;;;;1.60;1.60;;;;;;;;;;4972636;28;20298;-66
2022/07/30 14:25:45;;;;;;;1.67;1.20;;;;;;;;;;4972433;28;20638;-67
2022/07/30 14:28:13;;;;;;;1.48;1.30;;;;;;;;;;4972378;28;20210;-66
2022/07/30 14:30:40;;;;;;;1.13;1.13;;;;;;;;;;4970207;28;20237;-65
2022/07/30 14:33:07;;;;;;;2.33;1.35;;;;;;;;;;4971630;28;20216;-66
2022/07/30 14:35:34;;;;;;;1.30;1.30;;;;;;;;;;4976572;28;20216;-65
2022/07/30 14:38:03;;;;;;;1.38;1.27;;;;;;;;;;4981473;28;20210;-66
2022/07/30 14:40:30;;;;;;;1.33;1.33;;;;;;;;;;4991722;28;20213;-67
2022/07/30 14:42:57;;;;;;;2.78;1.10;;;;;;;;;;4990112;28;20220;-65
2022/07/30 14:45:24;;;;;;;3.22;1.40;;;;;;;;;;4989707;28;20197;-65
2022/07/30 14:47:51;;;;;;;2.45;1.60;;;;;;;;;;4989763;28;20229;-67
2022/07/30 14:50:18;;;;;;;1.25;1.20;;;;;;;;;;4988391;28;20694;-66
2022/07/30 14:52:46;;;;;;;2.40;1.58;;;;;;;;;;4989975;28;20213;-65
2022/07/30 14:55:14;;;;;;;0.90;0.90;;;;;;;;;;4990455;28;20292;-67
2022/07/30 14:57:43;;;;;;;1.70;1.60;;;;;;;;;;4976386;28;20211;-67
2022/07/30 15:00:10;;;;;;;1.23;1.05;;;;;;;;;;4987657;28;20214;-69
2022/07/30 15:02:39;;;;;;;3.80;1.35;;;;;;;;;;4983000;28;20676;-68
2022/07/30 15:05:07;;;;;;;1.23;1.20;;;;;;;;;;4995214;28;20580;-67
2022/07/30 15:07:34;;;;;;;2.55;1.33;;;;;;;;;;4990581;28;20206;-67
2022/07/30 15:10:01;;;;;;;1.98;1.40;;;;;;;;;;4991646;28;20715;-68
2022/07/30 15:12:29;;;;;;;1.83;1.73;;;;;;;;;;4991855;28;20233;-65
2022/07/30 15:14:56;;;;;;;1.42;1.42;;;;;;;;;;4978961;28;20305;-66
2022/07/30 15:17:23;;;;;;;3.40;1.20;;;;;;;;;;4987576;28;20217;-68
2022/07/30 15:19:50;;;;;;;2.63;1.65;;;;;;;;;;4987848;28;20217;-66
2022/07/30 15:22:17;;;;;;;1.67;1.00;;;;;;;;;;4976104;28;20638;-66
2022/07/30 15:24:44;;;;;;;1.30;1.30;;;;;;;;;;4974510;28;20217;-65
2022/07/30 15:27:11;;;;;;;2.90;1.40;;;;;;;;;;4972479;28;20222;-66
2022/07/30 15:29:40;;;;;;;1.98;1.88;;;;;;;;;;4971144;28;20214;-66
2022/07/30 15:32:07;;;;;;;1.75;1.40;;;;;;;;;;4979599;28;20707;-66
2022/07/30 15:34:35;;;;;;;1.52;1.30;;;;;;;;;;4977604;28;20206;-66
2022/07/30 15:37:02;;;;;;;1.65;1.65;;;;;;;;;;4988714;28;20709;-66
2022/07/30 15:39:31;;;;;;;2.03;1.17;;;;;;;;;;4972057;28;20210;-68
2022/07/30 15:41:58;;;;;;;3.28;1.30;;;;;;;;;;4982869;28;20308;-67
2022/07/30 15:44:25;;;;;;;1.80;1.23;;;;;;;;;;4989597;28;20646;-67
2022/07/30 15:46:53;;;;;;;1.35;1.23;;;;;;;;;;4972142;28;20598;-67
2022/07/30 15:49:20;;;;;;;1.42;1.33;;;;;;;;;;4980478;28;20260;-67
2022/07/30 15:51:48;;;;;;;4.03;1.30;;;;;;;;;;4980987;28;20712;-67
2022/07/30 15:54:15;;;;;;;1.08;1.08;;;;;;;;;;4976149;28;20643;-67
2022/07/30 15:56:44;;;;;;;1.20;1.20;;;;;;;;;;4978100;28;20205;-66
2022/07/30 15:59:11;;;;;;;2.70;0.98;;;;;;;;;;4984391;28;20205;-66
2022/07/30 16:01:38;;;;;;;1.30;1.30;;;;;;;;;;4997324;28;20224;-63
2022/07/30 16:04:06;;;;;;;1.45;1.15;;;;;;;;;;4990300;28;20206;-67
2022/07/30 16:06:34;;;;;;;1.30;1.20;;;;;;;;;;4988463;28;20673;-67
2022/07/30 16:09:01;;;;;;;2.58;0.98;;;;;;;;;;4989166;28;20312;-66
2022/07/30 16:11:28;;;;;;;1.20;1.10;;;;;;;;;;4981367;28;20264;-66
2022/07/30 16:13:55;;;;;;;0.90;0.90;;;;;;;;;;4971094;28;20529;-66
2022/07/30 16:16:22;;;;;;;0.60;0.60;;;;;;;;;;4987920;28;20210;-67
2022/07/30 16:18:49;;;;;;;2.80;0.80;;;;;;;;;;4974647;28;20692;-70
2022/07/30 16:21:18;;;;;;;0.70;0.70;;;;;;;;;;4980572;28;20202;-67
2022/07/30 16:23:45;;;;;;;0.60;0.60;;;;;;;;;;4979431;28;20237;-66